Historyczne dane pomiarowe

Dodano dane terminowe – wersja testowa.

Dane z okresu 1951-2019

Wersja bazy: 1.34 [2019-03-16, lista zmian], aktualizacja planowana na 2019-04-15

Dane meteo z obszaru Polski uzyskane na podstawie danych udostępnionych przez Instytut Meteorologii i Gospodarki Wodnej – Państwowy Instytut Badawczy.

 

Wybierz Datę:    

       

TemperaturaWilgotnośćZachmurzenieWiatrCiśnienieWidzialnośćZjawiska
 Data    tng td wb rh cc ccl cl cm ch dir g1 g2 mslp ppp      
1999-07-22 00:00:00 16.7--- 16.2 16.497wxwxwx1wx--1008.6 986.8 0.1---wxw1
1999-07-22 01:00:00 16.0--- 15.5 15.797wxwxwx2wx--1008.6 986.7----wx
1999-07-22 02:00:00 16.2--- 15.7 15.997wxwxwx1wx--1008.3 986.4----wxw1
1999-07-22 03:00:00 15.9--- 15.4 15.697wxwxwx0wx--1008.3 986.4----wxw1
1999-07-22 04:00:00 16.0--- 15.0 15.494wxwxwxwx0wx--1008.5 986.6----wx
1999-07-22 05:00:00 16.8--- 15.8 16.294wxwxwx1wx--1008.8 987.0----wx
1999-07-22 06:00:00 17.6--- 15.4 16.287wxwxwxwx1wx--1008.8 987.0 0.8---wxw1
1999-07-22 07:00:00 20.0--- 13.6 16.167wxwxwx0wx--1008.5 986.9----wx
1999-07-22 08:00:00 21.6--- 15.4 17.768wxwxwxwx1wx--1008.3 986.8----wx
1999-07-22 09:00:00 21.7--- 15.9 18.070wxwxwx3wx--1008.5 987.0----wx
1999-07-22 10:00:00 22.2--- 15.3 17.865wxwxwx5wx--1008.5 987.1----wx
1999-07-22 11:00:00 21.4--- 14.0 16.863wxwxwx5wx--1008.9 987.4----wx
1999-07-22 12:00:00 21.9--- 13.1 16.557wxwxwx7wx--1009.2 987.7 0.0---wx
1999-07-22 13:00:00 21.7--- 12.2 16.055wxwxwx5wx--1009.4 987.9----wx
1999-07-22 14:00:00 22.1--- 11.7 15.952wxwxwx5wx--1009.5 988.1----wx
1999-07-22 15:00:00 20.9--- 10.8 15.053wxwxwxwx5wx--1009.8 988.3----wx
1999-07-22 16:00:00 20.7--- 10.8 14.953wxwxwxwx3wx--1009.9 988.3----wx
1999-07-22 17:00:00 20.0--- 10.3 14.454wxwxwx2wx--1010.0 988.4----wx
1999-07-22 18:00:00 18.4--- 10.8 14.061wxwxwx2wx--1010.5 988.8 0.0---wx
1999-07-22 19:00:00 16.0--- 11.5 13.475wxwxwx0wx--1011.5 989.6----wx
1999-07-22 20:00:00 13.7--- 11.4 12.486wxwxwx0wx--1011.8 989.7----wx
1999-07-22 21:00:00 12.7--- 11.3 11.991wxwxwx0wx--1011.8 989.6----wx
1999-07-22 22:00:00 11.8--- 11.1 11.495wxwxwx0wx--1011.9 989.6----wx
1999-07-22 23:00:00 11.0--- 10.3 10.695wxwxwx0wx--1012.1 989.8----wx

 

Źródłem pochodzenia danych jest Instytut Meteorologii i Gospodarki Wodnej – Państwowy Instytut Badawczy. Dane Instytutu Meteorologii i Gospodarki Wodnej – Państwowego Instytutu Badawczego zostały przetworzone.

Dane źródłowe można odnaleźć na stronie https://dane.imgw.pl